sensor_id;sensor_type;location;lat;lon;timestamp;temperature;humidity
2062;DHT22;11070;51.336;12.340;2023-09-19T00:02:21;17.80;99.90
2062;DHT22;11070;51.336;12.340;2023-09-19T00:04:46;17.80;99.90
2062;DHT22;11070;51.336;12.340;2023-09-19T00:07:14;17.80;99.90
2062;DHT22;11070;51.336;12.340;2023-09-19T00:09:41;17.80;99.90
2062;DHT22;11070;51.336;12.340;2023-09-19T00:12:09;17.70;99.90
2062;DHT22;11070;51.336;12.340;2023-09-19T00:14:35;17.70;99.90
2062;DHT22;11070;51.336;12.340;2023-09-19T00:17:02;17.70;99.90
2062;DHT22;11070;51.336;12.340;2023-09-19T00:19:36;17.70;99.90
2062;DHT22;11070;51.336;12.340;2023-09-19T00:22:03;17.70;99.90
2062;DHT22;11070;51.336;12.340;2023-09-19T00:24:29;17.70;99.90
2062;DHT22;11070;51.336;12.340;2023-09-19T00:26:55;17.70;99.90
2062;DHT22;11070;51.336;12.340;2023-09-19T00:29:21;17.70;99.90
2062;DHT22;11070;51.336;12.340;2023-09-19T00:31:49;17.60;99.90
2062;DHT22;11070;51.336;12.340;2023-09-19T00:34:15;17.60;99.90
2062;DHT22;11070;51.336;12.340;2023-09-19T00:36:42;17.60;99.90
2062;DHT22;11070;51.336;12.340;2023-09-19T00:39:08;17.60;99.90
2062;DHT22;11070;51.336;12.340;2023-09-19T00:41:35;17.60;99.90
2062;DHT22;11070;51.336;12.340;2023-09-19T00:44:02;17.60;99.90
2062;DHT22;11070;51.336;12.340;2023-09-19T00:46:31;17.60;99.90
2062;DHT22;11070;51.336;12.340;2023-09-19T00:48:58;17.60;99.90
2062;DHT22;11070;51.336;12.340;2023-09-19T00:51:25;17.60;99.90
2062;DHT22;11070;51.336;12.340;2023-09-19T00:53:53;17.60;99.90
2062;DHT22;11070;51.336;12.340;2023-09-19T00:56:19;17.60;99.90
2062;DHT22;11070;51.336;12.340;2023-09-19T00:58:46;17.60;99.90
2062;DHT22;11070;51.336;12.340;2023-09-19T01:01:13;17.60;99.90
2062;DHT22;11070;51.336;12.340;2023-09-19T01:03:41;17.60;99.90
2062;DHT22;11070;51.336;12.340;2023-09-19T01:06:07;17.50;99.90
2062;DHT22;11070;51.336;12.340;2023-09-19T01:08:34;17.50;99.90
2062;DHT22;11070;51.336;12.340;2023-09-19T01:11:16;17.50;99.90
2062;DHT22;11070;51.336;12.340;2023-09-19T01:13:53;17.50;99.90
2062;DHT22;11070;51.336;12.340;2023-09-19T01:16:36;17.40;99.90
2062;DHT22;11070;51.336;12.340;2023-09-19T01:21:55;17.40;99.90
2062;DHT22;11070;51.336;12.340;2023-09-19T01:30:24;17.20;99.90
2062;DHT22;11070;51.336;12.340;2023-09-19T01:32:53;17.20;99.90
2062;DHT22;11070;51.336;12.340;2023-09-19T01:35:19;17.20;99.90
2062;DHT22;11070;51.336;12.340;2023-09-19T01:37:45;17.10;99.90
2062;DHT22;11070;51.336;12.340;2023-09-19T01:40:14;17.10;99.90
2062;DHT22;11070;51.336;12.340;2023-09-19T01:51:02;17.00;99.90
2062;DHT22;11070;51.336;12.340;2023-09-19T01:54:00;17.10;99.90
2062;DHT22;11070;51.336;12.340;2023-09-19T01:56:50;17.10;99.90
2062;DHT22;11070;51.336;12.340;2023-09-19T01:59:23;17.10;99.90
2062;DHT22;11070;51.336;12.340;2023-09-19T02:01:52;17.20;99.90
2062;DHT22;11070;51.336;12.340;2023-09-19T02:04:18;17.30;99.90
2062;DHT22;11070;51.336;12.340;2023-09-19T02:06:44;17.50;99.90
2062;DHT22;11070;51.336;12.340;2023-09-19T02:09:13;17.60;99.90
2062;DHT22;11070;51.336;12.340;2023-09-19T02:11:40;17.70;99.90
2062;DHT22;11070;51.336;12.340;2023-09-19T02:14:06;17.80;99.90
2062;DHT22;11070;51.336;12.340;2023-09-19T02:16:34;17.80;99.90
2062;DHT22;11070;51.336;12.340;2023-09-19T02:19:00;18.00;99.90
2062;DHT22;11070;51.336;12.340;2023-09-19T02:21:26;18.10;99.90
2062;DHT22;11070;51.336;12.340;2023-09-19T02:23:55;18.20;99.90
2062;DHT22;11070;51.336;12.340;2023-09-19T02:26:21;18.20;99.90
2062;DHT22;11070;51.336;12.340;2023-09-19T02:28:48;18.20;99.90
2062;DHT22;11070;51.336;12.340;2023-09-19T02:31:13;18.20;99.90
2062;DHT22;11070;51.336;12.340;2023-09-19T02:33:39;18.10;99.90
2062;DHT22;11070;51.336;12.340;2023-09-19T02:36:05;18.10;99.90
2062;DHT22;11070;51.336;12.340;2023-09-19T02:38:30;18.00;99.90
2062;DHT22;11070;51.336;12.340;2023-09-19T02:40:56;18.00;99.90
2062;DHT22;11070;51.336;12.340;2023-09-19T02:43:23;18.00;99.90
2062;DHT22;11070;51.336;12.340;2023-09-19T02:45:49;17.90;99.90
2062;DHT22;11070;51.336;12.340;2023-09-19T02:48:16;17.90;99.90
2062;DHT22;11070;51.336;12.340;2023-09-19T02:50:42;17.90;99.90
2062;DHT22;11070;51.336;12.340;2023-09-19T02:53:08;17.80;99.90
2062;DHT22;11070;51.336;12.340;2023-09-19T02:55:38;17.80;99.90
2062;DHT22;11070;51.336;12.340;2023-09-19T02:58:06;17.80;99.90
2062;DHT22;11070;51.336;12.340;2023-09-19T03:00:37;17.80;99.90
2062;DHT22;11070;51.336;12.340;2023-09-19T03:03:03;17.80;99.90
2062;DHT22;11070;51.336;12.340;2023-09-19T03:05:29;17.80;99.90
2062;DHT22;11070;51.336;12.340;2023-09-19T03:07:58;17.80;99.90
2062;DHT22;11070;51.336;12.340;2023-09-19T03:10:26;17.90;99.90
2062;DHT22;11070;51.336;12.340;2023-09-19T03:12:53;18.00;99.90
2062;DHT22;11070;51.336;12.340;2023-09-19T03:15:19;18.00;99.90
2062;DHT22;11070;51.336;12.340;2023-09-19T03:17:46;18.10;99.90
2062;DHT22;11070;51.336;12.340;2023-09-19T03:20:13;18.10;99.90
2062;DHT22;11070;51.336;12.340;2023-09-19T03:22:40;18.10;99.90
2062;DHT22;11070;51.336;12.340;2023-09-19T03:25:07;18.10;99.90
2062;DHT22;11070;51.336;12.340;2023-09-19T03:27:36;18.10;99.90
2062;DHT22;11070;51.336;12.340;2023-09-19T03:30:03;18.10;99.90
2062;DHT22;11070;51.336;12.340;2023-09-19T03:32:37;18.10;99.90
2062;DHT22;11070;51.336;12.340;2023-09-19T03:35:03;18.10;99.90
2062;DHT22;11070;51.336;12.340;2023-09-19T03:37:31;18.00;99.90
2062;DHT22;11070;51.336;12.340;2023-09-19T03:39:57;18.00;99.90
2062;DHT22;11070;51.336;12.340;2023-09-19T03:42:23;18.00;99.90
2062;DHT22;11070;51.336;12.340;2023-09-19T03:44:51;17.90;99.90
2062;DHT22;11070;51.336;12.340;2023-09-19T03:47:18;17.90;99.90
2062;DHT22;11070;51.336;12.340;2023-09-19T03:49:45;17.90;99.90
2062;DHT22;11070;51.336;12.340;2023-09-19T03:52:11;17.90;99.90
2062;DHT22;11070;51.336;12.340;2023-09-19T03:54:36;17.80;99.90
2062;DHT22;11070;51.336;12.340;2023-09-19T03:57:02;17.80;99.90
2062;DHT22;11070;51.336;12.340;2023-09-19T03:59:30;17.80;99.90
2062;DHT22;11070;51.336;12.340;2023-09-19T04:01:56;17.80;99.90
2062;DHT22;11070;51.336;12.340;2023-09-19T04:04:23;17.70;99.90
2062;DHT22;11070;51.336;12.340;2023-09-19T04:06:51;17.70;99.90
2062;DHT22;11070;51.336;12.340;2023-09-19T04:09:16;17.70;99.90
2062;DHT22;11070;51.336;12.340;2023-09-19T04:11:42;17.70;99.90
2062;DHT22;11070;51.336;12.340;2023-09-19T04:14:08;17.70;99.90
2062;DHT22;11070;51.336;12.340;2023-09-19T04:16:33;17.70;99.90
2062;DHT22;11070;51.336;12.340;2023-09-19T04:18:59;17.70;99.90
2062;DHT22;11070;51.336;12.340;2023-09-19T04:21:25;17.70;99.90
2062;DHT22;11070;51.336;12.340;2023-09-19T04:23:52;17.60;99.90
2062;DHT22;11070;51.336;12.340;2023-09-19T04:26:17;17.60;99.90
2062;DHT22;11070;51.336;12.340;2023-09-19T04:28:44;17.50;99.90
2062;DHT22;11070;51.336;12.340;2023-09-19T04:31:09;17.50;99.90
2062;DHT22;11070;51.336;12.340;2023-09-19T04:33:35;17.60;99.90
2062;DHT22;11070;51.336;12.340;2023-09-19T04:36:02;17.60;99.90
2062;DHT22;11070;51.336;12.340;2023-09-19T04:38:29;17.50;99.90
2062;DHT22;11070;51.336;12.340;2023-09-19T04:40:57;17.50;99.90
2062;DHT22;11070;51.336;12.340;2023-09-19T04:43:24;17.50;99.90
2062;DHT22;11070;51.336;12.340;2023-09-19T04:45:50;17.50;99.90
2062;DHT22;11070;51.336;12.340;2023-09-19T04:48:16;17.40;99.90
2062;DHT22;11070;51.336;12.340;2023-09-19T04:50:42;17.40;99.90
2062;DHT22;11070;51.336;12.340;2023-09-19T04:53:08;17.30;99.90
2062;DHT22;11070;51.336;12.340;2023-09-19T04:55:34;17.30;99.90
2062;DHT22;11070;51.336;12.340;2023-09-19T04:57:59;17.30;99.90
2062;DHT22;11070;51.336;12.340;2023-09-19T05:00:25;17.30;99.90
2062;DHT22;11070;51.336;12.340;2023-09-19T05:02:55;17.30;99.90
2062;DHT22;11070;51.336;12.340;2023-09-19T05:05:22;17.30;99.90
2062;DHT22;11070;51.336;12.340;2023-09-19T05:07:49;17.20;99.90
2062;DHT22;11070;51.336;12.340;2023-09-19T05:10:16;17.20;99.90
2062;DHT22;11070;51.336;12.340;2023-09-19T05:12:44;17.20;99.90
2062;DHT22;11070;51.336;12.340;2023-09-19T05:15:13;17.30;99.90
2062;DHT22;11070;51.336;12.340;2023-09-19T05:17:47;17.20;99.90
2062;DHT22;11070;51.336;12.340;2023-09-19T05:20:13;17.20;99.90
2062;DHT22;11070;51.336;12.340;2023-09-19T05:22:42;17.20;99.90
2062;DHT22;11070;51.336;12.340;2023-09-19T05:25:09;17.10;99.90
2062;DHT22;11070;51.336;12.340;2023-09-19T05:27:35;17.10;99.90
2062;DHT22;11070;51.336;12.340;2023-09-19T05:30:01;17.10;99.90
2062;DHT22;11070;51.336;12.340;2023-09-19T05:32:26;17.10;99.90
2062;DHT22;11070;51.336;12.340;2023-09-19T05:34:52;17.00;99.90
2062;DHT22;11070;51.336;12.340;2023-09-19T05:37:22;17.00;99.90
2062;DHT22;11070;51.336;12.340;2023-09-19T05:39:49;17.00;99.90
2062;DHT22;11070;51.336;12.340;2023-09-19T05:42:14;17.00;99.90
2062;DHT22;11070;51.336;12.340;2023-09-19T05:44:40;17.00;99.90
2062;DHT22;11070;51.336;12.340;2023-09-19T05:47:06;17.00;99.90
2062;DHT22;11070;51.336;12.340;2023-09-19T05:49:35;17.00;99.90
2062;DHT22;11070;51.336;12.340;2023-09-19T05:52:06;17.00;99.90
2062;DHT22;11070;51.336;12.340;2023-09-19T05:54:32;17.00;99.90
2062;DHT22;11070;51.336;12.340;2023-09-19T05:57:00;17.00;99.90
2062;DHT22;11070;51.336;12.340;2023-09-19T05:59:25;17.00;99.90
2062;DHT22;11070;51.336;12.340;2023-09-19T06:01:51;17.00;99.90
2062;DHT22;11070;51.336;12.340;2023-09-19T06:04:17;17.10;99.90
2062;DHT22;11070;51.336;12.340;2023-09-19T06:06:44;17.20;99.90
2062;DHT22;11070;51.336;12.340;2023-09-19T06:09:10;17.20;99.90
2062;DHT22;11070;51.336;12.340;2023-09-19T06:11:36;17.40;99.90
2062;DHT22;11070;51.336;12.340;2023-09-19T06:14:02;17.70;99.90
2062;DHT22;11070;51.336;12.340;2023-09-19T06:16:29;17.90;99.90
2062;DHT22;11070;51.336;12.340;2023-09-19T06:18:55;18.40;99.90
2062;DHT22;11070;51.336;12.340;2023-09-19T06:21:25;19.10;99.90
2062;DHT22;11070;51.336;12.340;2023-09-19T06:23:52;20.20;99.90
2062;DHT22;11070;51.336;12.340;2023-09-19T06:26:18;21.00;99.90
2062;DHT22;11070;51.336;12.340;2023-09-19T06:28:44;22.00;99.90
2062;DHT22;11070;51.336;12.340;2023-09-19T06:31:10;22.30;99.90
2062;DHT22;11070;51.336;12.340;2023-09-19T06:33:36;22.70;99.90
2062;DHT22;11070;51.336;12.340;2023-09-19T06:36:06;22.80;99.90
2062;DHT22;11070;51.336;12.340;2023-09-19T06:38:32;23.00;99.90
2062;DHT22;11070;51.336;12.340;2023-09-19T06:41:02;22.40;99.90
2062;DHT22;11070;51.336;12.340;2023-09-19T06:43:33;22.30;99.90
2062;DHT22;11070;51.336;12.340;2023-09-19T06:45:59;22.40;99.90
2062;DHT22;11070;51.336;12.340;2023-09-19T06:48:26;22.10;99.90
2062;DHT22;11070;51.336;12.340;2023-09-19T06:50:55;21.70;99.90
2062;DHT22;11070;51.336;12.340;2023-09-19T06:53:21;22.30;99.90
2062;DHT22;11070;51.336;12.340;2023-09-19T06:55:52;22.00;99.90
2062;DHT22;11070;51.336;12.340;2023-09-19T06:58:18;21.00;99.90
2062;DHT22;11070;51.336;12.340;2023-09-19T07:00:46;21.10;99.90
2062;DHT22;11070;51.336;12.340;2023-09-19T07:03:13;21.90;99.90
2062;DHT22;11070;51.336;12.340;2023-09-19T07:05:40;22.60;99.40
2062;DHT22;11070;51.336;12.340;2023-09-19T07:08:08;22.90;95.70
2062;DHT22;11070;51.336;12.340;2023-09-19T07:10:36;22.90;94.20
2062;DHT22;11070;51.336;12.340;2023-09-19T07:13:04;23.10;93.30
2062;DHT22;11070;51.336;12.340;2023-09-19T07:15:33;23.20;91.50
2062;DHT22;11070;51.336;12.340;2023-09-19T07:18:04;22.60;90.40
2062;DHT22;11070;51.336;12.340;2023-09-19T07:20:31;21.90;93.20
2062;DHT22;11070;51.336;12.340;2023-09-19T07:22:58;22.10;93.50
2062;DHT22;11070;51.336;12.340;2023-09-19T07:25:30;21.80;92.90
2062;DHT22;11070;51.336;12.340;2023-09-19T07:27:57;22.00;92.60
2062;DHT22;11070;51.336;12.340;2023-09-19T07:30:25;21.70;93.10
2062;DHT22;11070;51.336;12.340;2023-09-19T07:32:51;21.30;95.10
2062;DHT22;11070;51.336;12.340;2023-09-19T07:35:18;21.00;95.30
2062;DHT22;11070;51.336;12.340;2023-09-19T07:37:46;20.80;95.90
2062;DHT22;11070;51.336;12.340;2023-09-19T07:40:15;21.90;93.10
2062;DHT22;11070;51.336;12.340;2023-09-19T07:42:41;22.60;90.10
2062;DHT22;11070;51.336;12.340;2023-09-19T07:45:14;22.80;89.40
2062;DHT22;11070;51.336;12.340;2023-09-19T07:47:49;23.10;87.60
2062;DHT22;11070;51.336;12.340;2023-09-19T07:50:16;23.40;84.20
2062;DHT22;11070;51.336;12.340;2023-09-19T07:52:44;23.40;83.30
2062;DHT22;11070;51.336;12.340;2023-09-19T07:55:10;22.20;88.30
2062;DHT22;11070;51.336;12.340;2023-09-19T07:57:42;21.40;91.00
2062;DHT22;11070;51.336;12.340;2023-09-19T08:00:08;20.80;94.00
2062;DHT22;11070;51.336;12.340;2023-09-19T08:02:36;20.90;94.70
2062;DHT22;11070;51.336;12.340;2023-09-19T08:05:03;20.60;95.00
2062;DHT22;11070;51.336;12.340;2023-09-19T08:07:32;20.30;96.30
2062;DHT22;11070;51.336;12.340;2023-09-19T08:09:58;20.50;96.40
2062;DHT22;11070;51.336;12.340;2023-09-19T08:12:24;20.10;96.60
2062;DHT22;11070;51.336;12.340;2023-09-19T08:14:50;19.80;97.90
2062;DHT22;11070;51.336;12.340;2023-09-19T08:17:16;19.60;99.00
2062;DHT22;11070;51.336;12.340;2023-09-19T08:19:42;19.50;99.90
2062;DHT22;11070;51.336;12.340;2023-09-19T08:22:10;19.40;99.90
2062;DHT22;11070;51.336;12.340;2023-09-19T08:24:36;19.50;99.90
2062;DHT22;11070;51.336;12.340;2023-09-19T08:27:04;19.30;99.90
2062;DHT22;11070;51.336;12.340;2023-09-19T08:29:31;19.30;99.90
2062;DHT22;11070;51.336;12.340;2023-09-19T08:31:57;19.20;99.90
2062;DHT22;11070;51.336;12.340;2023-09-19T08:34:26;19.20;99.90
2062;DHT22;11070;51.336;12.340;2023-09-19T08:36:55;19.20;99.90
2062;DHT22;11070;51.336;12.340;2023-09-19T08:39:24;19.20;99.90
2062;DHT22;11070;51.336;12.340;2023-09-19T08:42:00;19.20;99.90
2062;DHT22;11070;51.336;12.340;2023-09-19T08:44:26;19.20;99.90
2062;DHT22;11070;51.336;12.340;2023-09-19T08:47:14;19.50;99.90
2062;DHT22;11070;51.336;12.340;2023-09-19T08:50:01;19.60;99.90
2062;DHT22;11070;51.336;12.340;2023-09-19T08:52:39;19.70;99.90
2062;DHT22;11070;51.336;12.340;2023-09-19T08:55:07;19.50;99.90
2062;DHT22;11070;51.336;12.340;2023-09-19T08:57:36;19.80;99.90
2062;DHT22;11070;51.336;12.340;2023-09-19T09:00:08;20.10;99.90
2062;DHT22;11070;51.336;12.340;2023-09-19T09:02:41;20.90;99.90
2062;DHT22;11070;51.336;12.340;2023-09-19T09:05:09;22.00;97.50
2062;DHT22;11070;51.336;12.340;2023-09-19T09:07:40;22.10;93.50
2062;DHT22;11070;51.336;12.340;2023-09-19T09:10:06;21.80;93.70
2062;DHT22;11070;51.336;12.340;2023-09-19T09:12:35;22.00;92.80
2062;DHT22;11070;51.336;12.340;2023-09-19T09:15:03;22.10;91.60
2062;DHT22;11070;51.336;12.340;2023-09-19T09:17:29;21.80;91.80
2062;DHT22;11070;51.336;12.340;2023-09-19T09:19:56;21.70;91.70
2062;DHT22;11070;51.336;12.340;2023-09-19T09:22:22;22.00;90.60
2062;DHT22;11070;51.336;12.340;2023-09-19T09:24:53;22.30;86.80
2062;DHT22;11070;51.336;12.340;2023-09-19T09:27:20;22.30;86.80
2062;DHT22;11070;51.336;12.340;2023-09-19T09:29:49;21.80;80.00
2062;DHT22;11070;51.336;12.340;2023-09-19T09:32:20;21.80;75.60
2062;DHT22;11070;51.336;12.340;2023-09-19T09:34:50;21.80;72.10
2062;DHT22;11070;51.336;12.340;2023-09-19T09:37:17;21.50;66.30
2062;DHT22;11070;51.336;12.340;2023-09-19T09:40:01;21.50;68.50
2062;DHT22;11070;51.336;12.340;2023-09-19T09:42:56;21.80;65.90
2062;DHT22;11070;51.336;12.340;2023-09-19T09:45:24;22.00;68.00
2062;DHT22;11070;51.336;12.340;2023-09-19T09:48:00;22.50;66.10
2062;DHT22;11070;51.336;12.340;2023-09-19T09:50:34;22.80;64.60
2062;DHT22;11070;51.336;12.340;2023-09-19T09:53:27;23.40;64.00
2062;DHT22;11070;51.336;12.340;2023-09-19T09:56:02;23.70;61.40
2062;DHT22;11070;51.336;12.340;2023-09-19T09:58:35;23.50;62.30
2062;DHT22;11070;51.336;12.340;2023-09-19T10:01:01;23.30;62.00
2062;DHT22;11070;51.336;12.340;2023-09-19T10:03:41;22.90;62.30
2062;DHT22;11070;51.336;12.340;2023-09-19T10:06:14;22.70;63.00
2062;DHT22;11070;51.336;12.340;2023-09-19T10:09:08;22.80;63.80
2062;DHT22;11070;51.336;12.340;2023-09-19T10:11:47;22.50;62.70
2062;DHT22;11070;51.336;12.340;2023-09-19T10:14:20;21.90;65.50
2062;DHT22;11070;51.336;12.340;2023-09-19T10:16:49;21.70;67.80
2062;DHT22;11070;51.336;12.340;2023-09-19T10:19:20;22.10;68.20
2062;DHT22;11070;51.336;12.340;2023-09-19T10:21:50;22.10;66.40
2062;DHT22;11070;51.336;12.340;2023-09-19T10:24:18;21.70;66.90
2062;DHT22;11070;51.336;12.340;2023-09-19T10:26:45;21.90;67.20
2062;DHT22;11070;51.336;12.340;2023-09-19T10:29:13;22.30;67.60
2062;DHT22;11070;51.336;12.340;2023-09-19T10:31:42;22.90;65.70
2062;DHT22;11070;51.336;12.340;2023-09-19T10:34:14;23.00;63.40
2062;DHT22;11070;51.336;12.340;2023-09-19T10:36:44;22.90;63.00
2062;DHT22;11070;51.336;12.340;2023-09-19T10:39:11;23.20;63.50
2062;DHT22;11070;51.336;12.340;2023-09-19T10:41:39;23.60;61.60
2062;DHT22;11070;51.336;12.340;2023-09-19T10:44:05;23.40;60.60
2062;DHT22;11070;51.336;12.340;2023-09-19T10:46:34;23.30;61.10
2062;DHT22;11070;51.336;12.340;2023-09-19T10:49:01;23.60;60.80
2062;DHT22;11070;51.336;12.340;2023-09-19T10:51:33;23.80;59.10
2062;DHT22;11070;51.336;12.340;2023-09-19T10:54:11;24.10;57.60
2062;DHT22;11070;51.336;12.340;2023-09-19T10:56:43;24.60;57.20
2062;DHT22;11070;51.336;12.340;2023-09-19T10:59:14;24.90;56.80
2062;DHT22;11070;51.336;12.340;2023-09-19T11:01:55;25.20;55.30
2062;DHT22;11070;51.336;12.340;2023-09-19T11:07:11;24.60;54.60
2062;DHT22;11070;51.336;12.340;2023-09-19T11:15:11;23.80;54.50
2062;DHT22;11070;51.336;12.340;2023-09-19T11:17:58;24.40;54.30
2062;DHT22;11070;51.336;12.340;2023-09-19T11:20:25;24.60;53.70
2062;DHT22;11070;51.336;12.340;2023-09-19T11:25:43;24.40;52.60
2062;DHT22;11070;51.336;12.340;2023-09-19T11:28:27;24.10;51.00
2062;DHT22;11070;51.336;12.340;2023-09-19T11:30:53;24.40;51.80
2062;DHT22;11070;51.336;12.340;2023-09-19T11:33:22;25.10;50.60
2062;DHT22;11070;51.336;12.340;2023-09-19T11:36:14;26.30;49.20
2062;DHT22;11070;51.336;12.340;2023-09-19T11:49:18;26.30;47.90
2062;DHT22;11070;51.336;12.340;2023-09-19T11:51:50;26.60;48.20
2062;DHT22;11070;51.336;12.340;2023-09-19T11:54:19;26.60;46.40
2062;DHT22;11070;51.336;12.340;2023-09-19T11:56:49;25.70;48.10
2062;DHT22;11070;51.336;12.340;2023-09-19T11:59:23;24.30;49.80
2062;DHT22;11070;51.336;12.340;2023-09-19T12:02:03;23.40;50.50
2062;DHT22;11070;51.336;12.340;2023-09-19T12:07:07;24.50;50.20
2062;DHT22;11070;51.336;12.340;2023-09-19T12:09:39;24.40;51.30
2062;DHT22;11070;51.336;12.340;2023-09-19T12:12:06;24.80;50.40
2062;DHT22;11070;51.336;12.340;2023-09-19T12:14:32;25.20;50.50
2062;DHT22;11070;51.336;12.340;2023-09-19T12:16:58;25.30;49.20
2062;DHT22;11070;51.336;12.340;2023-09-19T12:19:26;24.00;50.50
2062;DHT22;11070;51.336;12.340;2023-09-19T12:21:56;23.00;52.90
2062;DHT22;11070;51.336;12.340;2023-09-19T12:24:24;22.30;54.70
2062;DHT22;11070;51.336;12.340;2023-09-19T12:26:52;21.60;56.20
2062;DHT22;11070;51.336;12.340;2023-09-19T12:29:22;21.90;56.10
2062;DHT22;11070;51.336;12.340;2023-09-19T12:34:21;22.40;55.00
2062;DHT22;11070;51.336;12.340;2023-09-19T12:36:48;22.30;55.00
2062;DHT22;11070;51.336;12.340;2023-09-19T12:39:24;21.90;55.80
2062;DHT22;11070;51.336;12.340;2023-09-19T12:41:55;22.10;55.60
2062;DHT22;11070;51.336;12.340;2023-09-19T12:44:22;22.00;55.10
2062;DHT22;11070;51.336;12.340;2023-09-19T12:46:50;21.70;54.90
2062;DHT22;11070;51.336;12.340;2023-09-19T12:51:49;21.90;55.20
2062;DHT22;11070;51.336;12.340;2023-09-19T12:54:15;22.50;54.70
2062;DHT22;11070;51.336;12.340;2023-09-19T12:56:45;23.20;53.50
2062;DHT22;11070;51.336;12.340;2023-09-19T12:59:12;23.20;53.00
2062;DHT22;11070;51.336;12.340;2023-09-19T13:01:40;23.80;52.70
2062;DHT22;11070;51.336;12.340;2023-09-19T13:04:21;24.30;51.40
2062;DHT22;11070;51.336;12.340;2023-09-19T13:06:54;24.70;50.50
2062;DHT22;11070;51.336;12.340;2023-09-19T13:09:22;24.30;50.40
2062;DHT22;11070;51.336;12.340;2023-09-19T13:11:50;23.70;51.40
2062;DHT22;11070;51.336;12.340;2023-09-19T13:14:26;24.50;51.40
2062;DHT22;11070;51.336;12.340;2023-09-19T13:17:05;24.90;49.50
2062;DHT22;11070;51.336;12.340;2023-09-19T13:19:49;25.10;50.00
2062;DHT22;11070;51.336;12.340;2023-09-19T13:22:39;25.00;49.00
2062;DHT22;11070;51.336;12.340;2023-09-19T13:25:09;23.20;52.30
2062;DHT22;11070;51.336;12.340;2023-09-19T13:27:40;23.80;52.80
2062;DHT22;11070;51.336;12.340;2023-09-19T13:30:06;24.20;51.60
2062;DHT22;11070;51.336;12.340;2023-09-19T13:32:33;24.00;51.60
2062;DHT22;11070;51.336;12.340;2023-09-19T13:34:59;23.40;52.20
2062;DHT22;11070;51.336;12.340;2023-09-19T13:37:25;23.70;52.90
2062;DHT22;11070;51.336;12.340;2023-09-19T13:39:52;24.80;51.10
2062;DHT22;11070;51.336;12.340;2023-09-19T13:42:17;25.30;50.50
2062;DHT22;11070;51.336;12.340;2023-09-19T13:44:44;24.80;50.00
2062;DHT22;11070;51.336;12.340;2023-09-19T13:47:09;24.50;51.30
2062;DHT22;11070;51.336;12.340;2023-09-19T13:49:38;24.50;51.10
2062;DHT22;11070;51.336;12.340;2023-09-19T13:52:04;23.70;51.60
2062;DHT22;11070;51.336;12.340;2023-09-19T13:54:30;23.50;52.90
2062;DHT22;11070;51.336;12.340;2023-09-19T13:56:56;24.40;51.70
2062;DHT22;11070;51.336;12.340;2023-09-19T13:59:22;24.30;51.10
2062;DHT22;11070;51.336;12.340;2023-09-19T14:01:52;24.20;50.30
2062;DHT22;11070;51.336;12.340;2023-09-19T14:04:19;24.40;50.30
2062;DHT22;11070;51.336;12.340;2023-09-19T14:06:47;24.50;50.20
2062;DHT22;11070;51.336;12.340;2023-09-19T14:09:13;24.20;50.40
2062;DHT22;11070;51.336;12.340;2023-09-19T14:11:39;24.20;49.90
2062;DHT22;11070;51.336;12.340;2023-09-19T14:14:05;24.40;49.70
2062;DHT22;11070;51.336;12.340;2023-09-19T14:16:31;24.00;49.30
2062;DHT22;11070;51.336;12.340;2023-09-19T14:18:57;23.70;50.60
2062;DHT22;11070;51.336;12.340;2023-09-19T14:21:23;23.80;50.70
2062;DHT22;11070;51.336;12.340;2023-09-19T14:23:49;24.30;49.80
2062;DHT22;11070;51.336;12.340;2023-09-19T14:26:15;24.60;48.80
2062;DHT22;11070;51.336;12.340;2023-09-19T14:28:44;24.10;48.90
2062;DHT22;11070;51.336;12.340;2023-09-19T14:31:11;24.20;49.10
2062;DHT22;11070;51.336;12.340;2023-09-19T14:33:37;23.90;49.40
2062;DHT22;11070;51.336;12.340;2023-09-19T14:36:08;24.00;50.00
2062;DHT22;11070;51.336;12.340;2023-09-19T14:38:36;24.10;49.50
2062;DHT22;11070;51.336;12.340;2023-09-19T14:41:04;24.30;49.40
2062;DHT22;11070;51.336;12.340;2023-09-19T14:43:37;24.50;49.70
2062;DHT22;11070;51.336;12.340;2023-09-19T14:46:06;24.80;48.60
2062;DHT22;11070;51.336;12.340;2023-09-19T14:48:36;24.90;47.70
2062;DHT22;11070;51.336;12.340;2023-09-19T14:51:03;24.80;48.30
2062;DHT22;11070;51.336;12.340;2023-09-19T14:53:29;24.60;48.60
2062;DHT22;11070;51.336;12.340;2023-09-19T14:55:55;24.50;49.50
2062;DHT22;11070;51.336;12.340;2023-09-19T14:58:21;24.10;49.70
2062;DHT22;11070;51.336;12.340;2023-09-19T15:00:47;23.90;50.10
2062;DHT22;11070;51.336;12.340;2023-09-19T15:03:13;23.80;50.20
2062;DHT22;11070;51.336;12.340;2023-09-19T15:05:43;23.40;50.10
2062;DHT22;11070;51.336;12.340;2023-09-19T15:08:09;23.40;50.70
2062;DHT22;11070;51.336;12.340;2023-09-19T15:10:34;23.40;49.80
2062;DHT22;11070;51.336;12.340;2023-09-19T15:13:00;23.60;49.80
2062;DHT22;11070;51.336;12.340;2023-09-19T15:15:26;23.80;49.40
2062;DHT22;11070;51.336;12.340;2023-09-19T15:17:51;23.80;49.20
2062;DHT22;11070;51.336;12.340;2023-09-19T15:20:17;24.30;48.20
2062;DHT22;11070;51.336;12.340;2023-09-19T15:22:43;24.40;47.90
2062;DHT22;11070;51.336;12.340;2023-09-19T15:25:09;24.20;47.70
2062;DHT22;11070;51.336;12.340;2023-09-19T15:27:35;23.80;47.70
2062;DHT22;11070;51.336;12.340;2023-09-19T15:30:02;23.60;48.00
2062;DHT22;11070;51.336;12.340;2023-09-19T15:32:28;23.40;48.30
2062;DHT22;11070;51.336;12.340;2023-09-19T15:34:54;23.20;47.90
2062;DHT22;11070;51.336;12.340;2023-09-19T15:37:20;23.20;48.20
2062;DHT22;11070;51.336;12.340;2023-09-19T15:39:47;23.10;48.00
2062;DHT22;11070;51.336;12.340;2023-09-19T15:42:13;23.10;48.10
2062;DHT22;11070;51.336;12.340;2023-09-19T15:44:41;23.20;48.50
2062;DHT22;11070;51.336;12.340;2023-09-19T15:47:08;23.20;48.10
2062;DHT22;11070;51.336;12.340;2023-09-19T15:49:34;23.10;48.30
2062;DHT22;11070;51.336;12.340;2023-09-19T15:52:00;22.80;48.60
2062;DHT22;11070;51.336;12.340;2023-09-19T15:54:26;22.50;49.00
2062;DHT22;11070;51.336;12.340;2023-09-19T15:56:53;22.30;49.40
2062;DHT22;11070;51.336;12.340;2023-09-19T15:59:20;22.40;49.70
2062;DHT22;11070;51.336;12.340;2023-09-19T16:01:46;22.30;50.00
2062;DHT22;11070;51.336;12.340;2023-09-19T16:04:12;22.30;50.10
2062;DHT22;11070;51.336;12.340;2023-09-19T16:06:38;22.20;50.40
2062;DHT22;11070;51.336;12.340;2023-09-19T16:09:04;22.30;50.70
2062;DHT22;11070;51.336;12.340;2023-09-19T16:11:34;22.30;50.70
2062;DHT22;11070;51.336;12.340;2023-09-19T16:14:01;22.10;50.40
2062;DHT22;11070;51.336;12.340;2023-09-19T16:16:28;21.80;51.20
2062;DHT22;11070;51.336;12.340;2023-09-19T16:19:02;21.70;51.40
2062;DHT22;11070;51.336;12.340;2023-09-19T16:21:30;21.80;51.60
2062;DHT22;11070;51.336;12.340;2023-09-19T16:23:58;21.70;51.40
2062;DHT22;11070;51.336;12.340;2023-09-19T16:26:25;21.40;51.70